createdAt,value
2018-04-24T00:00:36.527Z,99.90
2018-04-24T00:03:05.520Z,99.90
2018-04-24T00:05:34.002Z,99.90
2018-04-24T00:08:02.481Z,99.90
2018-04-24T00:10:31.016Z,99.90
2018-04-24T00:12:59.555Z,99.90
2018-04-24T00:15:28.029Z,99.90
2018-04-24T00:17:56.332Z,99.90
2018-04-24T00:20:24.792Z,99.90
2018-04-24T00:22:53.269Z,99.90
2018-04-24T00:25:21.965Z,99.90
2018-04-24T00:27:50.533Z,99.90
2018-04-24T00:30:18.850Z,99.90
2018-04-24T00:32:47.297Z,99.90
2018-04-24T00:35:15.782Z,99.90
2018-04-24T00:37:44.251Z,99.90
2018-04-24T00:40:12.735Z,99.90
2018-04-24T00:42:41.056Z,99.90
2018-04-24T00:45:09.496Z,99.90
2018-04-24T00:47:38.074Z,99.90
2018-04-24T00:50:06.554Z,99.90
2018-04-24T00:52:34.947Z,99.90
2018-04-24T00:55:03.415Z,99.90
2018-04-24T00:57:32.003Z,99.90
2018-04-24T01:00:00.484Z,99.90
2018-04-24T01:02:28.962Z,99.90
2018-04-24T01:04:58.058Z,99.90
2018-04-24T01:07:26.435Z,99.90
2018-04-24T01:09:54.914Z,99.90
2018-04-24T01:12:23.324Z,99.90
2018-04-24T01:14:51.725Z,99.90
2018-04-24T01:17:20.081Z,99.90
2018-04-24T01:19:48.643Z,99.90
2018-04-24T01:22:17.119Z,99.90
2018-04-24T01:24:45.597Z,99.90
2018-04-24T01:27:13.935Z,99.90
2018-04-24T01:29:43.178Z,99.90
2018-04-24T01:32:11.500Z,99.90
2018-04-24T01:34:39.931Z,99.90
2018-04-24T01:37:08.414Z,99.90
2018-04-24T01:39:36.763Z,99.90
2018-04-24T01:42:05.885Z,99.90
2018-04-24T01:44:34.465Z,99.90
2018-04-24T01:47:03.042Z,99.90
2018-04-24T01:49:31.441Z,99.90
2018-04-24T01:52:00.015Z,99.90
2018-04-24T01:54:28.389Z,99.90
2018-04-24T01:56:56.867Z,99.90
2018-04-24T01:59:25.250Z,99.90
2018-04-24T02:01:53.940Z,99.90
2018-04-24T02:04:22.414Z,99.90
2018-04-24T02:06:50.796Z,99.90
2018-04-24T02:09:19.116Z,99.90
2018-04-24T02:11:47.558Z,99.90
2018-04-24T02:14:16.034Z,99.90
2018-04-24T02:16:44.423Z,99.90
2018-04-24T02:19:12.757Z,99.90
2018-04-24T02:21:41.989Z,99.90
2018-04-24T02:24:10.468Z,99.90
2018-04-24T02:26:39.050Z,99.90
2018-04-24T02:29:07.372Z,99.90
2018-04-24T02:31:35.813Z,99.90
2018-04-24T02:34:04.293Z,99.90
2018-04-24T02:36:32.820Z,99.90
2018-04-24T02:39:01.359Z,99.90
2018-04-24T02:41:29.713Z,99.90
2018-04-24T02:43:58.140Z,99.90
2018-04-24T02:46:26.641Z,99.90
2018-04-24T02:48:55.993Z,99.90
2018-04-24T02:51:24.477Z,99.90
2018-04-24T02:53:52.959Z,99.90
2018-04-24T02:56:21.291Z,99.90
2018-04-24T02:58:49.752Z,99.90
2018-04-24T03:01:18.243Z,99.90
2018-04-24T03:03:47.569Z,99.90
2018-04-24T03:06:16.075Z,99.90
2018-04-24T03:08:44.503Z,99.90
2018-04-24T03:11:13.039Z,99.90
2018-04-24T03:13:42.132Z,99.90
2018-04-24T03:16:10.531Z,99.90
2018-04-24T03:18:38.991Z,99.90
2018-04-24T03:21:07.470Z,99.90
2018-04-24T03:23:35.953Z,99.90
2018-04-24T03:26:04.435Z,99.90
2018-04-24T03:28:32.918Z,99.90
2018-04-24T03:31:01.496Z,99.90
2018-04-24T03:33:30.129Z,99.90
2018-04-24T03:35:58.680Z,99.90
2018-04-24T03:38:27.121Z,99.90
2018-04-24T03:40:55.731Z,99.90
2018-04-24T03:43:24.129Z,99.90
2018-04-24T03:45:52.568Z,99.90
2018-04-24T03:48:21.070Z,99.90
2018-04-24T03:50:50.202Z,99.90
2018-04-24T03:53:18.665Z,99.90
2018-04-24T03:55:47.709Z,99.90
2018-04-24T03:58:16.123Z,99.90
2018-04-24T04:00:44.603Z,99.90
2018-04-24T04:03:13.026Z,99.90
2018-04-24T04:05:42.284Z,99.90
2018-04-24T04:08:10.758Z,99.90
2018-04-24T04:10:39.178Z,99.90
2018-04-24T04:13:07.770Z,99.90
2018-04-24T04:15:36.305Z,99.90
2018-04-24T04:18:16.662Z,99.90
2018-04-24T04:20:56.920Z,99.90
2018-04-24T04:23:37.177Z,99.90
2018-04-24T04:26:05.672Z,99.90
2018-04-24T04:28:34.139Z,99.90
2018-04-24T04:31:02.664Z,99.90
2018-04-24T04:33:30.993Z,99.90
2018-04-24T04:35:59.536Z,99.90
2018-04-24T04:38:28.632Z,99.90
2018-04-24T04:40:57.775Z,99.90
2018-04-24T04:43:26.179Z,99.90
2018-04-24T04:45:54.738Z,99.90
2018-04-24T04:48:23.224Z,99.90
2018-04-24T04:50:51.800Z,99.90
2018-04-24T04:53:20.283Z,99.90
2018-04-24T04:55:49.480Z,99.90
2018-04-24T04:58:18.879Z,99.90
2018-04-24T05:00:48.083Z,99.90
2018-04-24T05:03:16.632Z,99.90
2018-04-24T05:05:45.146Z,99.90
2018-04-24T05:08:13.532Z,99.90
2018-04-24T05:10:42.000Z,99.90
2018-04-24T05:13:10.357Z,99.90
2018-04-24T05:15:39.533Z,99.90
2018-04-24T05:18:08.056Z,99.90
2018-04-24T05:20:37.060Z,99.90
2018-04-24T05:23:05.473Z,99.90
2018-04-24T05:25:34.627Z,99.90
2018-04-24T05:28:03.110Z,99.90
2018-04-24T05:30:31.590Z,99.90
2018-04-24T05:33:00.035Z,99.90
2018-04-24T05:35:29.224Z,99.90
2018-04-24T05:37:58.463Z,99.90
2018-04-24T05:40:26.957Z,99.90
2018-04-24T05:42:55.316Z,99.90
2018-04-24T05:45:23.873Z,99.90
2018-04-24T05:50:17.006Z,99.90
2018-04-24T05:52:45.565Z,99.90
2018-04-24T05:55:14.048Z,99.90
2018-04-24T05:57:42.528Z,99.90
2018-04-24T06:00:10.952Z,99.90
2018-04-24T06:02:42.663Z,99.90
2018-04-24T06:05:11.116Z,99.90
2018-04-24T06:07:39.622Z,99.90
2018-04-24T06:10:07.998Z,99.90
2018-04-24T06:12:36.397Z,99.90
2018-04-24T06:15:04.975Z,99.90
2018-04-24T06:17:33.385Z,99.90
2018-04-24T06:20:01.823Z,99.90
2018-04-24T06:22:30.425Z,99.90
2018-04-24T06:24:58.801Z,99.90
2018-04-24T06:27:28.198Z,99.90
2018-04-24T06:29:56.556Z,99.90
2018-04-24T06:32:25.046Z,99.90
2018-04-24T06:34:53.525Z,99.90
2018-04-24T06:37:22.027Z,99.90
2018-04-24T06:39:50.384Z,99.90
2018-04-24T06:42:18.940Z,99.90
2018-04-24T06:44:47.341Z,99.90
2018-04-24T06:47:16.445Z,99.90
2018-04-24T06:49:45.535Z,99.90
2018-04-24T06:52:13.868Z,99.90
2018-04-24T06:54:43.109Z,99.90
2018-04-24T06:57:12.056Z,99.90
2018-04-24T06:59:41.304Z,99.90
2018-04-24T07:02:09.737Z,99.90
2018-04-24T07:04:39.110Z,99.90
2018-04-24T07:07:09.518Z,99.90
2018-04-24T07:09:37.905Z,99.90
2018-04-24T07:12:06.475Z,99.90
2018-04-24T07:14:34.953Z,99.90
2018-04-24T07:17:03.437Z,99.90
2018-04-24T07:19:31.917Z,99.90
2018-04-24T07:22:00.245Z,99.90
2018-04-24T07:24:28.773Z,99.90
2018-04-24T07:26:57.182Z,99.90
2018-04-24T07:29:26.145Z,99.90
2018-04-24T07:31:54.629Z,99.90
2018-04-24T07:34:23.869Z,99.90
2018-04-24T07:36:53.952Z,99.90
2018-04-24T07:39:22.427Z,99.90
2018-04-24T07:41:51.011Z,99.90
2018-04-24T07:44:19.902Z,99.90
2018-04-24T07:46:48.406Z,99.90
2018-04-24T07:49:16.746Z,99.90
2018-04-24T07:51:45.241Z,99.90
2018-04-24T07:54:19.491Z,99.90
2018-04-24T07:56:54.635Z,99.90
2018-04-24T07:59:23.361Z,99.90
2018-04-24T08:01:52.501Z,99.90
2018-04-24T08:04:20.974Z,99.90
2018-04-24T08:06:49.434Z,99.90
2018-04-24T08:09:18.278Z,99.90
2018-04-24T08:11:47.522Z,99.90
2018-04-24T08:14:16.473Z,99.90
2018-04-24T08:16:45.922Z,99.90
2018-04-24T08:19:14.327Z,99.90
2018-04-24T08:21:42.678Z,99.90
2018-04-24T08:24:11.044Z,99.90
2018-04-24T08:26:39.537Z,99.90
2018-04-24T08:29:08.839Z,99.90
2018-04-24T08:31:37.218Z,99.90
2018-04-24T08:34:05.700Z,99.90
2018-04-24T08:36:34.149Z,99.90
2018-04-24T08:39:03.613Z,99.90
2018-04-24T08:41:32.880Z,99.90
2018-04-24T08:44:01.261Z,99.90
2018-04-24T08:46:29.746Z,99.90
2018-04-24T08:48:58.259Z,99.90
2018-04-24T08:51:26.803Z,99.90
2018-04-24T08:53:55.284Z,99.90
2018-04-24T08:56:23.735Z,99.90
2018-04-24T08:58:52.182Z,99.90
2018-04-24T09:01:20.663Z,99.90
2018-04-24T09:03:49.107Z,99.90
2018-04-24T09:06:18.272Z,99.90
2018-04-24T09:08:47.413Z,99.90
2018-04-24T09:11:15.983Z,99.90
2018-04-24T09:13:44.466Z,99.90
2018-04-24T09:16:12.944Z,99.90
2018-04-24T09:18:41.274Z,99.90
2018-04-24T09:21:09.803Z,99.90
2018-04-24T09:23:38.185Z,99.90
2018-04-24T09:26:06.661Z,99.90
2018-04-24T09:28:35.139Z,99.90
2018-04-24T09:31:04.223Z,99.90
2018-04-24T09:33:33.470Z,99.90
2018-04-24T09:36:01.921Z,99.90
2018-04-24T09:38:30.404Z,99.90
2018-04-24T09:40:58.941Z,99.90
2018-04-24T09:43:28.385Z,99.90
2018-04-24T09:45:57.123Z,99.90
2018-04-24T09:48:26.934Z,99.90
2018-04-24T09:50:56.183Z,99.90
2018-04-24T09:53:25.033Z,99.90
2018-04-24T09:55:54.123Z,99.90
2018-04-24T09:58:23.303Z,99.90
2018-04-24T10:00:51.977Z,99.90
2018-04-24T10:03:20.303Z,99.90
2018-04-24T10:05:48.807Z,99.90
2018-04-24T10:08:17.291Z,99.90
2018-04-24T10:10:45.768Z,99.90
2018-04-24T10:13:14.178Z,99.90
2018-04-24T10:15:42.579Z,99.90
2018-04-24T10:18:11.928Z,99.90
2018-04-24T10:20:40.651Z,99.90
2018-04-24T10:23:09.095Z,99.90
2018-04-24T10:25:37.452Z,99.90
2018-04-24T10:28:06.056Z,99.90
2018-04-24T10:30:34.463Z,99.90
2018-04-24T10:33:02.769Z,99.90
2018-04-24T10:35:32.114Z,99.90
2018-04-24T10:38:00.495Z,99.90
2018-04-24T10:40:29.112Z,99.90
2018-04-24T10:42:57.554Z,99.90
2018-04-24T10:45:25.879Z,99.90
2018-04-24T10:47:54.421Z,99.90
2018-04-24T10:50:22.898Z,99.90
2018-04-24T10:52:51.287Z,99.90
2018-04-24T10:55:19.707Z,99.90
2018-04-24T10:57:48.342Z,99.90
2018-04-24T11:00:16.821Z,99.90
2018-04-24T11:02:45.097Z,99.90
2018-04-24T11:05:13.523Z,99.90
2018-04-24T11:07:41.959Z,99.90
2018-04-24T11:10:10.437Z,99.90
2018-04-24T11:12:38.864Z,99.90
2018-04-24T11:15:07.398Z,99.90
2018-04-24T11:17:36.036Z,99.90
2018-04-24T11:20:05.288Z,99.90
2018-04-24T11:22:33.867Z,99.90
2018-04-24T11:25:02.356Z,99.90
2018-04-24T11:27:30.835Z,99.90
2018-04-24T11:30:00.919Z,99.90
2018-04-24T11:32:31.301Z,99.90
2018-04-24T11:35:00.165Z,99.80
2018-04-24T11:37:30.462Z,95.90
2018-04-24T11:39:58.973Z,95.90
2018-04-24T11:42:27.449Z,94.20
2018-04-24T11:44:56.034Z,93.20
2018-04-24T11:47:24.441Z,90.30
2018-04-24T11:49:52.891Z,87.70
2018-04-24T11:52:21.296Z,88.50
2018-04-24T11:54:49.749Z,90.30
2018-04-24T11:57:18.229Z,83.50
2018-04-24T11:59:46.896Z,84.10
2018-04-24T12:02:15.339Z,85.30
2018-04-24T12:04:44.025Z,84.90
2018-04-24T12:07:12.463Z,85.20
2018-04-24T12:09:41.862Z,91.00
2018-04-24T12:12:10.271Z,90.60
2018-04-24T12:14:39.229Z,91.10
2018-04-24T12:17:07.648Z,90.80
2018-04-24T12:19:37.525Z,86.90
2018-04-24T12:22:05.920Z,86.60
2018-04-24T12:24:34.313Z,82.70
2018-04-24T12:27:02.866Z,83.30
2018-04-24T12:29:31.344Z,83.00
2018-04-24T12:31:59.729Z,81.40
2018-04-24T12:34:29.241Z,82.30
2018-04-24T12:36:58.020Z,82.00
2018-04-24T12:39:26.447Z,81.00
2018-04-24T12:41:55.598Z,82.30
2018-04-24T12:44:24.079Z,82.80
2018-04-24T12:46:56.361Z,83.30
2018-04-24T12:49:25.906Z,86.60
2018-04-24T12:51:58.090Z,87.40
2018-04-24T12:54:29.334Z,88.70
2018-04-24T12:59:37.025Z,86.40
2018-04-24T13:02:07.635Z,87.10
2018-04-24T13:04:36.431Z,85.80
2018-04-24T13:07:06.569Z,86.00
2018-04-24T13:09:36.506Z,84.80
2018-04-24T13:12:05.167Z,83.90
2018-04-24T13:14:36.353Z,86.30
2018-04-24T13:17:07.084Z,85.10
2018-04-24T13:19:36.776Z,88.90
2018-04-24T13:22:06.827Z,87.80
2018-04-24T13:24:36.679Z,87.80
2018-04-24T13:27:05.825Z,86.20
2018-04-24T13:29:36.630Z,88.30
2018-04-24T13:32:06.582Z,88.80
2018-04-24T13:34:37.852Z,89.70
2018-04-24T13:37:08.511Z,90.90
2018-04-24T13:39:37.892Z,91.00
2018-04-24T13:42:06.869Z,91.00
2018-04-24T13:44:37.485Z,91.10
2018-04-24T13:47:06.241Z,90.30
2018-04-24T13:49:35.435Z,81.40
2018-04-24T13:52:04.679Z,77.10
2018-04-24T13:54:34.596Z,79.70
2018-04-24T13:57:03.072Z,79.80
2018-04-24T13:59:31.546Z,80.20
2018-04-24T14:02:00.090Z,75.90
2018-04-24T14:04:29.439Z,67.20
2018-04-24T14:06:57.810Z,67.10
2018-04-24T14:09:27.331Z,66.10
2018-04-24T14:11:55.800Z,66.10
2018-04-24T14:14:24.281Z,66.80
2018-04-24T14:16:52.863Z,69.70
2018-04-24T14:19:21.341Z,67.70
2018-04-24T14:21:49.834Z,69.90
2018-04-24T14:24:18.969Z,69.80
2018-04-24T14:26:47.769Z,72.40
2018-04-24T14:29:17.215Z,68.40
2018-04-24T14:31:45.726Z,68.90
2018-04-24T14:34:14.270Z,70.80
2018-04-24T14:36:43.532Z,70.80
2018-04-24T14:39:12.772Z,69.20
2018-04-24T14:41:41.256Z,69.10
2018-04-24T14:44:09.742Z,71.80
2018-04-24T14:46:38.178Z,71.40
2018-04-24T14:49:07.510Z,70.50
2018-04-24T14:51:36.136Z,70.40
2018-04-24T14:54:05.359Z,70.40
2018-04-24T14:56:34.479Z,74.20
2018-04-24T14:59:03.019Z,74.10
2018-04-24T15:01:31.571Z,74.40
2018-04-24T15:04:00.038Z,74.10
2018-04-24T15:06:28.629Z,75.40
2018-04-24T15:08:57.209Z,78.60
2018-04-24T15:11:25.853Z,78.90
2018-04-24T15:13:54.429Z,82.00
2018-04-24T15:16:23.746Z,79.90
2018-04-24T15:18:52.261Z,79.70
2018-04-24T15:21:20.847Z,78.40
2018-04-24T15:23:50.561Z,80.20
2018-04-24T15:26:19.081Z,80.20
2018-04-24T15:28:48.329Z,80.70
2018-04-24T15:31:16.815Z,80.70
2018-04-24T15:33:45.394Z,78.90
2018-04-24T15:36:13.888Z,80.90
2018-04-24T15:38:43.234Z,81.70
2018-04-24T15:41:12.583Z,80.00
2018-04-24T15:43:40.990Z,80.10
2018-04-24T15:46:09.543Z,82.90
2018-04-24T15:48:38.160Z,84.20
2018-04-24T15:51:06.541Z,83.50
2018-04-24T15:53:35.085Z,84.20
2018-04-24T15:56:03.661Z,84.60
2018-04-24T15:58:32.148Z,83.80
2018-04-24T16:01:00.609Z,84.20
2018-04-24T16:03:29.112Z,86.70
2018-04-24T16:05:57.527Z,84.20
2018-04-24T16:08:25.969Z,84.40
2018-04-24T16:10:54.575Z,87.10
2018-04-24T16:13:22.988Z,86.40
2018-04-24T16:15:52.231Z,88.30
2018-04-24T16:18:20.666Z,88.30
2018-04-24T16:20:49.881Z,90.60
2018-04-24T16:23:18.701Z,90.40
2018-04-24T16:25:47.584Z,91.30
2018-04-24T16:28:16.488Z,91.00
2018-04-24T16:30:46.492Z,92.00
2018-04-24T16:33:15.076Z,92.00
2018-04-24T16:35:43.607Z,92.80
2018-04-24T16:38:12.155Z,93.40
2018-04-24T16:40:42.409Z,93.00
2018-04-24T16:43:11.663Z,95.60
2018-04-24T16:45:40.147Z,95.60
2018-04-24T16:48:08.519Z,96.00
2018-04-24T16:50:37.821Z,97.20
2018-04-24T16:53:06.227Z,97.30
2018-04-24T16:55:34.908Z,98.60
2018-04-24T16:58:03.428Z,99.30
2018-04-24T17:00:32.724Z,99.90
2018-04-24T17:03:01.103Z,99.90
2018-04-24T17:05:30.342Z,99.90
2018-04-24T17:07:58.830Z,99.90
2018-04-24T17:10:27.253Z,99.90
2018-04-24T17:12:56.460Z,99.90
2018-04-24T17:15:25.374Z,99.90
2018-04-24T17:17:53.976Z,99.90
2018-04-24T17:20:22.549Z,99.90
2018-04-24T17:22:51.062Z,99.90
2018-04-24T17:25:21.446Z,99.90
2018-04-24T17:27:51.028Z,99.90
2018-04-24T17:30:20.326Z,99.90
2018-04-24T17:32:50.090Z,99.90
2018-04-24T17:35:18.637Z,99.90
2018-04-24T17:37:47.527Z,99.90
2018-04-24T17:40:16.856Z,99.90
2018-04-24T17:42:46.269Z,99.90
2018-04-24T17:45:14.692Z,99.90
2018-04-24T17:47:43.967Z,99.90
2018-04-24T17:50:12.350Z,99.90
2018-04-24T17:52:41.116Z,99.90
2018-04-24T17:55:09.589Z,99.90
2018-04-24T17:57:38.482Z,99.90
2018-04-24T18:00:06.964Z,99.90
2018-04-24T18:02:36.168Z,99.90
2018-04-24T18:05:04.636Z,99.90
2018-04-24T18:07:33.088Z,99.90
2018-04-24T18:10:01.643Z,99.90
2018-04-24T18:12:30.017Z,99.90
2018-04-24T18:14:59.379Z,99.90
2018-04-24T18:17:27.852Z,99.90
2018-04-24T18:19:56.974Z,99.90
2018-04-24T18:22:25.710Z,99.90
2018-04-24T18:24:54.333Z,99.90
2018-04-24T18:27:22.853Z,99.90
2018-04-24T18:29:53.542Z,99.90
2018-04-24T18:32:22.095Z,99.90
2018-04-24T18:34:51.418Z,99.90
2018-04-24T18:37:21.483Z,99.90
2018-04-24T18:39:51.602Z,99.90
2018-04-24T18:42:19.994Z,99.90
2018-04-24T18:44:49.895Z,99.90
2018-04-24T18:47:20.519Z,99.90
2018-04-24T18:49:51.625Z,99.90
2018-04-24T18:52:22.034Z,99.90
2018-04-24T18:54:51.158Z,99.90
2018-04-24T18:57:20.117Z,99.90
2018-04-24T18:59:50.271Z,99.90
2018-04-24T19:02:18.754Z,99.90
2018-04-24T19:04:47.338Z,99.90
2018-04-24T19:07:16.128Z,99.90
2018-04-24T19:09:45.994Z,99.90
2018-04-24T19:12:14.609Z,99.90
2018-04-24T19:14:43.162Z,99.90
2018-04-24T19:17:11.715Z,99.90
2018-04-24T19:19:40.359Z,99.90
2018-04-24T19:22:10.413Z,99.90
2018-04-24T19:24:45.359Z,99.90
2018-04-24T19:27:14.615Z,99.90
2018-04-24T19:29:43.325Z,99.90
2018-04-24T19:32:17.624Z,99.90
2018-04-24T19:34:47.725Z,99.90
2018-04-24T19:37:16.295Z,99.90
2018-04-24T19:39:50.490Z,99.90
2018-04-24T19:42:19.840Z,99.90
2018-04-24T19:44:48.939Z,99.90
2018-04-24T19:47:17.624Z,99.90
2018-04-24T19:49:51.620Z,99.90
2018-04-24T19:52:20.329Z,99.90
2018-04-24T19:54:57.358Z,99.90
2018-04-24T19:57:25.895Z,99.90
2018-04-24T19:59:54.564Z,99.90
2018-04-24T20:02:23.050Z,99.90
2018-04-24T20:04:51.640Z,99.90
2018-04-24T20:07:23.692Z,99.90
2018-04-24T20:09:53.097Z,99.90
2018-04-24T20:12:22.912Z,99.90
2018-04-24T20:14:51.540Z,99.90
2018-04-24T20:17:20.190Z,99.90
2018-04-24T20:19:49.215Z,99.90
2018-04-24T20:22:17.924Z,99.90
2018-04-24T20:24:47.462Z,99.90
2018-04-24T20:27:16.306Z,99.90
2018-04-24T20:29:45.110Z,99.90
2018-04-24T20:32:13.759Z,99.90
2018-04-24T20:34:43.125Z,99.90
2018-04-24T20:37:11.842Z,99.90
2018-04-24T20:39:42.682Z,99.90
2018-04-24T20:42:11.897Z,99.90
2018-04-24T20:44:44.372Z,99.90
2018-04-24T20:47:14.034Z,99.90
2018-04-24T20:49:43.633Z,99.90
2018-04-24T20:52:12.456Z,99.90
2018-04-24T20:54:41.107Z,99.90
2018-04-24T20:57:11.056Z,99.90
2018-04-24T20:59:40.122Z,99.90
2018-04-24T21:02:08.706Z,99.90
2018-04-24T21:04:37.378Z,99.90
2018-04-24T21:07:06.495Z,99.90
2018-04-24T21:09:34.926Z,99.90
2018-04-24T21:12:04.078Z,99.90
2018-04-24T21:14:32.585Z,99.90
2018-04-24T21:17:01.884Z,99.90
2018-04-24T21:19:31.584Z,99.90
2018-04-24T21:22:02.276Z,99.90
2018-04-24T21:24:30.807Z,99.90
2018-04-24T21:27:00.829Z,99.90
2018-04-24T21:29:31.513Z,99.90
2018-04-24T21:32:01.797Z,99.90
2018-04-24T21:34:30.826Z,99.90
2018-04-24T21:36:59.309Z,99.90
2018-04-24T21:39:28.038Z,99.90
2018-04-24T21:41:57.392Z,99.90
2018-04-24T21:44:25.953Z,99.90
2018-04-24T21:46:55.191Z,99.90
2018-04-24T21:49:25.401Z,99.90
2018-04-24T21:51:54.161Z,99.90
2018-04-24T21:54:22.676Z,99.90
2018-04-24T21:56:51.277Z,99.90
2018-04-24T21:59:19.951Z,99.90
2018-04-24T22:01:49.242Z,99.90
2018-04-24T22:04:19.512Z,99.90
2018-04-24T22:06:48.273Z,99.90
2018-04-24T22:09:17.666Z,99.90
2018-04-24T22:11:47.727Z,99.90
2018-04-24T22:14:21.473Z,99.90
2018-04-24T22:16:50.063Z,99.90
2018-04-24T22:19:23.762Z,99.90
2018-04-24T22:21:54.279Z,99.90
2018-04-24T22:24:23.193Z,99.90
2018-04-24T22:26:54.565Z,99.90
2018-04-24T22:29:24.914Z,99.90
2018-04-24T22:31:54.765Z,99.90
2018-04-24T22:34:23.781Z,99.90
2018-04-24T22:36:52.735Z,99.90
2018-04-24T22:39:21.284Z,99.90
2018-04-24T22:41:50.539Z,99.90
2018-04-24T22:44:18.875Z,99.90
2018-04-24T22:46:48.113Z,99.90
2018-04-24T22:49:17.786Z,99.90
2018-04-24T22:51:47.167Z,99.90
2018-04-24T22:54:16.623Z,99.90
2018-04-24T22:56:45.053Z,99.90
2018-04-24T22:59:14.402Z,99.90
2018-04-24T23:01:42.805Z,99.90
2018-04-24T23:04:11.306Z,99.90
2018-04-24T23:06:39.799Z,99.90
2018-04-24T23:09:09.067Z,99.90
2018-04-24T23:11:49.445Z,99.90
2018-04-24T23:14:31.389Z,99.90
2018-04-24T23:17:11.561Z,99.90
2018-04-24T23:19:51.926Z,99.90
2018-04-24T23:22:21.973Z,99.90
2018-04-24T23:24:50.419Z,99.90
2018-04-24T23:27:18.897Z,99.90
2018-04-24T23:29:47.375Z,99.90
2018-04-24T23:32:16.618Z,99.90
2018-04-24T23:34:45.162Z,99.90
2018-04-24T23:37:13.640Z,99.90
2018-04-24T23:39:42.017Z,99.90
2018-04-24T23:42:10.495Z,99.90
2018-04-24T23:44:38.977Z,99.90
2018-04-24T23:47:07.522Z,99.90
2018-04-24T23:49:35.977Z,99.90
2018-04-24T23:52:04.526Z,99.90
2018-04-24T23:54:33.841Z,99.90
2018-04-24T23:57:02.412Z,99.90
2018-04-24T23:59:32.131Z,99.90
